Time;durP1;ratioP1;P1;durP2;ratioP2;P2;SDS_P1;SDS_P2;PMS_P1;PMS_P2;Temp;Humidity;BMP_temperature;BMP_pressure;BME280_temperature;BME280_humidity;BME280_pressure;Samples;Min_cycle;Max_cycle;Signal;HPM_P1;HPM_P2
2022/02/19 00:00:57;;;;;;;7.73;2.50;;;;;;;3.22;72.87;95123.34;1724182;83;20971;-66
2022/02/19 00:03:24;;;;;;;11.23;3.83;;;;;;;3.32;72.23;95116.41;1724114;82;21042;-66
2022/02/19 00:05:50;;;;;;;5.73;2.37;;;;;;;3.47;70.36;95120.78;1723702;83;21026;-66
2022/02/19 00:08:17;;;;;;;5.93;2.23;;;;;;;3.53;70.44;95100.34;1724140;83;21022;-66
2022/02/19 00:10:45;;;;;;;5.97;1.87;;;;;;;3.50;70.83;95112.09;1724256;82;20979;-66
2022/02/19 00:13:11;;;;;;;6.17;2.40;;;;;;;3.51;70.21;95117.76;1724251;83;21465;-66
2022/02/19 00:15:38;;;;;;;6.67;2.07;;;;;;;3.53;70.67;95116.89;1724286;83;21498;-66
2022/02/19 00:18:05;;;;;;;5.80;1.57;;;;;;;3.53;70.58;95103.84;1724328;82;21012;-66
2022/02/19 00:20:33;;;;;;;3.47;1.57;;;;;;;3.50;70.23;95108.17;1724097;83;21015;-66
2022/02/19 00:23:00;;;;;;;4.73;1.57;;;;;;;3.52;70.38;95094.70;1724138;82;21106;-66
2022/02/19 00:25:27;;;;;;;9.73;3.90;;;;;;;3.44;70.63;95089.48;1724292;82;21015;-66
2022/02/19 00:27:53;;;;;;;9.00;2.00;;;;;;;3.40;70.72;95069.48;1724280;82;21019;-66
2022/02/19 00:30:21;;;;;;;11.80;3.70;;;;;;;3.37;70.90;95068.18;1724158;82;21026;-66
2022/02/19 00:32:48;;;;;;;8.57;2.20;;;;;;;3.34;71.04;95089.91;1724145;83;21094;-66
2022/02/19 00:35:15;;;;;;;7.77;2.60;;;;;;;3.37;70.60;95074.26;1724164;83;20999;-66
2022/02/19 00:37:41;;;;;;;5.33;2.27;;;;;;;3.38;70.78;95072.10;1724194;82;21039;-66
2022/02/19 00:40:10;;;;;;;6.20;2.23;;;;;;;3.34;71.02;95058.62;1724169;83;21034;-66
2022/02/19 00:42:36;;;;;;;7.83;2.00;;;;;;;3.29;70.90;95057.75;1724174;83;21430;-66
2022/02/19 00:45:05;;;;;;;18.67;6.70;;;;;;;3.25;71.40;95076.84;1724244;83;21098;-66
2022/02/19 00:47:31;;;;;;;28.83;14.27;;;;;;;3.19;71.84;95071.64;1724054;83;21019;-66
2022/02/19 00:49:58;;;;;;;19.57;10.97;;;;;;;3.08;72.16;95091.18;1724168;82;21022;-66
2022/02/19 00:52:24;;;;;;;6.47;2.00;;;;;;;3.04;72.47;95105.06;1724163;83;20999;-66
2022/02/19 00:54:51;;;;;;;6.13;1.97;;;;;;;3.09;72.04;95102.47;1724168;83;21044;-66
2022/02/19 00:57:18;;;;;;;5.87;2.67;;;;;;;3.09;72.04;95108.98;1724176;83;21114;-66
2022/02/19 00:59:44;;;;;;;5.87;2.73;;;;;;;3.03;72.51;95105.94;1724195;83;21533;-66
2022/02/19 01:02:11;;;;;;;7.37;2.33;;;;;;;3.04;71.67;95105.92;1724032;82;21077;-66
2022/02/19 01:04:55;;;;;;;5.03;1.80;;;;;;;3.10;71.33;95101.59;1723878;83;21058;-66
2022/02/19 01:07:24;;;;;;;6.77;1.97;;;;;;;3.19;71.02;95097.71;1724116;83;20978;-66
2022/02/19 01:09:50;;;;;;;4.87;1.90;;;;;;;3.31;70.32;95103.39;1723988;83;20999;-66
2022/02/19 01:12:17;;;;;;;5.63;2.60;;;;;;;3.39;69.51;95102.95;1723977;83;21059;-66
2022/02/19 01:14:43;;;;;;;9.53;1.93;;;;;;;3.52;68.53;95079.06;1724155;83;21050;-66
2022/02/19 01:17:10;;;;;;;4.57;1.90;;;;;;;3.56;68.61;95083.42;1724046;83;21031;-66
2022/02/19 01:19:36;;;;;;;6.03;1.37;;;;;;;3.58;68.49;95076.03;1724084;83;21540;-67
2022/02/19 01:22:06;;;;;;;4.70;1.67;;;;;;;3.55;68.92;95069.92;1724125;83;21019;-66
2022/02/19 01:24:33;;;;;;;5.20;2.40;;;;;;;3.37;69.56;95066.88;1724313;83;21038;-66
2022/02/19 01:27:01;;;;;;;5.60;2.30;;;;;;;3.24;69.73;95073.38;1695393;83;21508;-66
2022/02/19 01:29:28;;;;;;;9.70;4.30;;;;;;;3.19;69.99;95067.73;1695573;83;21038;-66
2022/02/19 01:31:55;;;;;;;11.27;3.53;;;;;;;3.17;70.12;95069.45;1724185;82;21066;-66
2022/02/19 01:34:22;;;;;;;14.60;6.17;;;;;;;3.13;70.43;95067.73;1695461;83;20995;-66
2022/02/19 01:36:50;;;;;;;7.57;2.40;;;;;;;3.11;70.68;95068.16;1723879;83;21011;-66
2022/02/19 01:39:17;;;;;;;14.43;6.90;;;;;;;3.11;70.66;95071.63;1724077;83;21031;-66
2022/02/19 01:41:45;;;;;;;11.03;5.07;;;;;;;3.09;71.32;95069.45;1724066;83;21062;-66
2022/02/19 01:44:15;;;;;;;9.97;4.23;;;;;;;3.08;71.46;95074.23;1724060;83;21030;-66
2022/02/19 01:46:43;;;;;;;23.03;8.80;;;;;;;3.10;71.15;95072.92;1695425;83;21020;-66
2022/02/19 01:49:11;;;;;;;11.83;4.23;;;;;;;3.12;71.23;95058.16;1724160;83;21022;-66
2022/02/19 01:51:39;;;;;;;9.60;2.47;;;;;;;3.13;71.37;95052.09;1723828;82;21090;-66
2022/02/19 01:54:09;;;;;;;7.60;2.73;;;;;;;3.16;71.00;95051.66;1724164;83;21474;-66
2022/02/19 01:56:54;;;;;;;10.20;4.27;;;;;;;3.15;70.61;95056.45;1723961;83;21042;-66
2022/02/19 01:59:35;;;;;;;12.20;3.37;;;;;;;3.18;70.58;95051.67;1722666;83;21050;-67
2022/02/19 02:02:04;;;;;;;9.03;4.50;;;;;;;3.24;70.47;95047.75;1723193;83;21039;-67
2022/02/19 02:04:38;;;;;;;9.33;3.57;;;;;;;3.25;70.84;95033.83;1728030;83;21572;-67
2022/02/19 02:07:05;;;;;;;11.53;3.37;;;;;;;3.22;71.14;95039.91;1729574;82;21027;-67
2022/02/19 02:09:33;;;;;;;12.70;4.93;;;;;;;3.15;71.35;95041.21;1702786;83;21034;-67
2022/02/19 02:12:02;;;;;;;7.23;3.30;;;;;;;3.12;71.26;95026.88;1729523;83;21007;-67
2022/02/19 02:14:30;;;;;;;9.30;2.90;;;;;;;3.10;71.14;95023.39;1729581;83;21453;-67
2022/02/19 02:17:01;;;;;;;8.33;2.97;;;;;;;3.08;72.57;95032.98;1728494;83;21547;-67
2022/02/19 02:19:28;;;;;;;6.67;2.80;;;;;;;3.08;72.13;95019.50;1729469;83;20990;-67
2022/02/19 02:22:06;;;;;;;8.33;2.40;;;;;;;3.09;72.00;95028.19;1728505;83;21076;-67
2022/02/19 02:24:34;;;;;;;4.60;2.23;;;;;;;3.08;71.99;95015.59;1728878;83;21528;-67
2022/02/19 02:27:07;;;;;;;6.60;2.50;;;;;;;3.10;72.24;95016.47;1729467;83;21571;-67
2022/02/19 02:29:48;;;;;;;4.07;2.20;;;;;;;3.13;72.24;95006.04;1729537;83;21043;-67
2022/02/19 02:32:16;;;;;;;8.23;2.45;;;;;;;3.13;72.39;95003.88;1729016;83;21006;-67
2022/02/19 02:34:49;;;;;;;6.03;2.73;;;;;;;3.09;72.62;94999.52;1729541;83;21520;-67
2022/02/19 02:37:17;;;;;;;10.70;2.80;;;;;;;3.08;72.80;94996.05;1728692;83;21023;-67
2022/02/19 02:39:46;;;;;;;6.63;2.73;;;;;;;3.14;72.59;95001.69;1729494;82;21070;-67
2022/02/19 02:42:12;;;;;;;9.07;2.87;;;;;;;3.16;72.04;95003.42;1702727;83;21003;-67
2022/02/19 02:44:41;;;;;;;8.70;3.73;;;;;;;3.17;71.70;95006.89;1729489;83;21091;-67
2022/02/19 02:47:09;;;;;;;12.30;5.00;;;;;;;3.18;71.91;94997.78;1702996;83;21010;-67
2022/02/19 02:49:37;;;;;;;10.07;4.23;;;;;;;3.17;71.16;94989.95;1729438;83;21022;-67
2022/02/19 02:52:09;;;;;;;8.33;3.43;;;;;;;3.22;70.90;94986.47;1729367;83;21070;-67
2022/02/19 02:54:37;;;;;;;7.33;2.80;;;;;;;3.44;68.84;94963.86;1729464;82;21043;-67
2022/02/19 02:57:05;;;;;;;4.80;1.70;;;;;;;3.67;68.41;94977.30;1729362;83;21078;-67
2022/02/19 02:59:31;;;;;;;2.97;1.20;;;;;;;4.00;64.40;94982.01;1729175;83;21544;-67
2022/02/19 03:01:58;;;;;;;4.07;1.40;;;;;;;4.47;61.25;94969.20;1729452;83;21002;-67
2022/02/19 03:04:25;;;;;;;4.33;1.50;;;;;;;4.92;62.36;94975.03;1724627;83;21007;-67
2022/02/19 03:06:52;;;;;;;3.97;1.80;;;;;;;5.07;62.72;94971.45;1723905;83;21074;-68
2022/02/19 03:09:19;;;;;;;2.27;1.30;;;;;;;5.22;60.26;94970.02;1724133;83;21011;-67
2022/02/19 03:11:45;;;;;;;4.43;1.57;;;;;;;5.90;53.96;94970.27;1723994;83;21517;-67
2022/02/19 03:14:13;;;;;;;3.40;1.07;;;;;;;6.41;52.32;94965.33;1723977;83;21500;-65
2022/02/19 03:16:40;;;;;;;3.77;0.90;;;;;;;6.78;52.54;94958.30;1724070;83;21054;-65
2022/02/19 03:19:07;;;;;;;6.97;1.47;;;;;;;7.13;50.24;94953.84;1695398;83;21493;-65
2022/02/19 03:21:34;;;;;;;3.43;1.10;;;;;;;7.32;50.75;94951.77;1723805;83;21500;-65
2022/02/19 03:24:01;;;;;;;2.27;1.03;;;;;;;7.50;46.60;94951.05;1724149;83;20999;-65
2022/02/19 03:26:28;;;;;;;1.73;1.00;;;;;;;7.68;45.37;94941.98;1723989;83;21047;-65
2022/02/19 03:28:56;;;;;;;1.87;1.10;;;;;;;7.86;44.50;94937.73;1723940;83;21537;-65
2022/02/19 03:31:24;;;;;;;2.80;1.20;;;;;;;7.90;45.52;94934.13;1724098;83;21017;-65
2022/02/19 03:33:52;;;;;;;2.43;1.20;;;;;;;7.99;44.33;94932.66;1723260;83;21019;-65
2022/02/19 03:36:21;;;;;;;2.90;1.20;;;;;;;8.12;44.51;94942.48;1723570;83;21118;-65
2022/02/19 03:38:47;;;;;;;3.83;1.27;;;;;;;8.18;44.43;94934.91;1723882;82;20991;-65
2022/02/19 03:41:18;;;;;;;1.63;0.90;;;;;;;8.18;43.37;94942.34;1723599;83;21087;-66
2022/02/19 03:43:45;;;;;;;3.03;0.93;;;;;;;8.21;42.82;94942.73;1723956;83;21038;-66
2022/02/19 03:46:12;;;;;;;3.03;1.20;;;;;;;8.41;41.92;94955.50;1724101;83;21034;-66
2022/02/19 03:48:50;;;;;;;2.67;0.90;;;;;;;8.36;44.34;94957.33;1723521;83;21051;-66
2022/02/19 03:51:18;;;;;;;5.60;1.10;;;;;;;8.34;42.51;94957.38;1723998;83;21006;-66
2022/02/19 03:53:46;;;;;;;3.23;1.20;;;;;;;8.43;42.93;94962.46;1724036;83;21030;-66
2022/02/19 03:56:14;;;;;;;2.33;1.00;;;;;;;8.65;41.55;94959.40;1724396;83;21022;-65
2022/02/19 03:58:41;;;;;;;2.73;1.10;;;;;;;8.77;40.72;94955.61;1724076;83;21074;-65
2022/02/19 04:01:08;;;;;;;1.80;1.00;;;;;;;8.81;41.01;94958.61;1723954;83;21022;-65
2022/02/19 04:03:34;;;;;;;3.77;0.93;;;;;;;8.85;40.82;94966.86;1723922;83;20979;-65
2022/02/19 04:06:02;;;;;;;2.30;1.43;;;;;;;8.76;41.60;94961.33;1723975;83;21050;-65
2022/02/19 04:08:29;;;;;;;3.53;1.17;;;;;;;8.78;41.73;94970.52;1724080;83;21038;-65
2022/02/19 04:10:56;;;;;;;3.60;1.20;;;;;;;8.71;42.54;94986.87;1723851;83;21019;-65
2022/02/19 04:13:23;;;;;;;3.17;1.10;;;;;;;8.57;42.41;94983.69;1724080;83;21051;-65
2022/02/19 04:15:51;;;;;;;3.83;1.17;;;;;;;8.41;43.41;94988.36;1721308;83;21011;-65
2022/02/19 04:18:19;;;;;;;2.60;1.33;;;;;;;8.32;43.15;94978.87;1723905;83;21058;-65
2022/02/19 04:20:46;;;;;;;4.23;1.57;;;;;;;8.29;43.99;94976.31;1723872;83;21504;-66
2022/02/19 04:23:12;;;;;;;4.37;1.43;;;;;;;8.12;45.86;94984.52;1723987;83;21505;-65
2022/02/19 04:25:39;;;;;;;4.07;1.53;;;;;;;7.89;47.86;94986.26;1723995;83;21558;-65
2022/02/19 04:28:10;;;;;;;2.87;1.27;;;;;;;7.70;47.24;94979.13;1723161;83;21497;-65
2022/02/19 04:30:38;;;;;;;2.67;1.67;;;;;;;7.49;47.72;94989.56;1724258;83;21559;-65
2022/02/19 04:33:05;;;;;;;3.40;1.23;;;;;;;7.18;49.66;94990.92;1724027;83;20998;-65
2022/02/19 04:35:34;;;;;;;1.87;1.10;;;;;;;6.88;50.40;94987.88;1724232;83;21027;-65
2022/02/19 04:38:01;;;;;;;3.17;1.60;;;;;;;6.74;51.66;94996.38;1724018;82;21078;-65
2022/02/19 04:40:29;;;;;;;2.67;1.40;;;;;;;6.79;52.49;94999.34;1723950;83;21027;-65
2022/02/19 04:42:55;;;;;;;1.90;1.53;;;;;;;7.01;52.02;94993.81;1724225;82;21496;-65
2022/02/19 04:45:24;;;;;;;3.73;1.57;;;;;;;7.08;51.74;94982.31;1723371;83;21573;-65
2022/02/19 04:47:53;;;;;;;1.83;1.30;;;;;;;7.01;53.56;94989.43;1724129;83;21026;-65
2022/02/19 04:50:20;;;;;;;3.23;1.70;;;;;;;6.91;54.40;94991.31;1724096;83;21508;-65
2022/02/19 04:52:48;;;;;;;6.60;4.13;;;;;;;6.77;54.01;94990.62;1695440;83;21038;-65
2022/02/19 04:55:15;;;;;;;3.03;1.40;;;;;;;6.87;53.40;94998.79;1724200;82;21066;-65
2022/02/19 04:57:43;;;;;;;2.27;1.70;;;;;;;7.05;53.03;95000.73;1724178;82;21529;-65
2022/02/19 05:00:13;;;;;;;5.50;1.70;;;;;;;7.29;51.51;95017.88;1724022;83;21015;-65
2022/02/19 05:02:42;;;;;;;7.63;6.20;;;;;;;7.40;51.83;95017.70;1719769;83;21532;-65
2022/02/19 05:05:09;;;;;;;3.97;1.97;;;;;;;7.57;51.35;95012.61;1699845;83;21062;-65
2022/02/19 05:07:37;;;;;;;3.53;1.70;;;;;;;7.92;50.54;95028.22;1727023;83;21101;-65
2022/02/19 05:10:05;;;;;;;2.73;1.63;;;;;;;7.99;50.52;95025.91;1727151;83;21491;-65
2022/02/19 05:12:33;;;;;;;4.47;2.63;;;;;;;8.08;50.68;95035.38;1727205;83;21081;-66
2022/02/19 05:15:03;;;;;;;3.73;2.47;;;;;;;8.16;51.01;95029.53;1727232;83;21001;-65
2022/02/19 05:17:30;;;;;;;2.60;1.97;;;;;;;8.08;51.65;95026.64;1726724;83;21041;-65
2022/02/19 05:19:59;;;;;;;2.07;1.50;;;;;;;8.21;51.83;95043.91;1726720;83;21038;-65
2022/02/19 05:22:25;;;;;;;5.00;2.60;;;;;;;8.17;52.08;95043.56;1726883;83;21019;-66
2022/02/19 05:24:54;;;;;;;3.13;2.30;;;;;;;8.06;52.52;95025.34;1727242;83;21014;-65
2022/02/19 05:27:20;;;;;;;2.30;1.80;;;;;;;8.08;52.69;95038.01;1727272;83;21065;-65
2022/02/19 05:29:47;;;;;;;5.30;2.40;;;;;;;8.11;52.89;95030.52;1727251;82;21537;-65
2022/02/19 05:32:15;;;;;;;2.87;1.80;;;;;;;8.06;52.93;95031.05;1727241;83;21062;-65
2022/02/19 05:34:43;;;;;;;4.20;1.70;;;;;;;8.01;53.04;95034.64;1724367;82;21059;-65
2022/02/19 05:37:09;;;;;;;3.43;1.97;;;;;;;8.01;53.29;95035.06;1727031;83;21129;-65
2022/02/19 05:39:41;;;;;;;2.73;1.83;;;;;;;8.02;53.35;95031.11;1718260;83;21043;-65
2022/02/19 05:42:09;;;;;;;3.77;1.43;;;;;;;8.08;53.39;95031.89;1726837;83;21125;-65
2022/02/19 05:44:36;;;;;;;5.70;1.93;;;;;;;8.05;53.46;95019.67;1727310;83;21046;-65
2022/02/19 05:47:05;;;;;;;5.17;2.00;;;;;;;8.22;53.55;95030.75;1727163;83;21014;-65
2022/02/19 05:49:34;;;;;;;4.60;2.20;;;;;;;8.31;53.43;95040.66;1726729;83;20987;-65
2022/02/19 05:52:11;;;;;;;4.33;1.90;;;;;;;8.27;53.81;95045.13;1726758;83;21493;-65
2022/02/19 05:54:40;;;;;;;2.80;1.57;;;;;;;8.34;53.35;95042.80;1724226;83;21094;-65
2022/02/19 05:57:08;;;;;;;6.63;1.60;;;;;;;8.38;53.37;95023.88;1726040;83;21054;-65
2022/02/19 05:59:35;;;;;;;3.57;2.20;;;;;;;8.42;53.43;95037.44;1727274;83;21476;-65
2022/02/19 06:02:02;;;;;;;2.33;1.70;;;;;;;8.40;53.66;95028.70;1727347;83;21022;-65
2022/02/19 06:04:29;;;;;;;2.97;2.20;;;;;;;8.31;54.36;95037.58;1725247;82;21540;-66
2022/02/19 06:06:56;;;;;;;6.67;3.00;;;;;;;8.26;54.88;95034.17;1723843;83;21022;-66
2022/02/19 06:09:23;;;;;;;3.13;1.90;;;;;;;8.28;54.97;95032.84;1724045;83;21050;-65
2022/02/19 06:11:50;;;;;;;6.67;2.83;;;;;;;8.30;55.24;95034.55;1724033;83;21015;-66
2022/02/19 06:14:22;;;;;;;3.17;1.97;;;;;;;8.34;55.26;95036.66;1720066;83;21055;-65
2022/02/19 06:16:52;;;;;;;2.67;1.03;;;;;;;8.27;55.93;95026.73;1722546;83;21489;-65
2022/02/19 06:19:21;;;;;;;4.67;1.70;;;;;;;8.50;55.83;95038.60;1724166;82;20991;-65
2022/02/19 06:21:48;;;;;;;4.43;2.10;;;;;;;8.70;55.52;95037.75;1723978;82;21054;-66
2022/02/19 06:24:16;;;;;;;3.87;2.13;;;;;;;8.82;55.32;95029.61;1723882;83;21004;-65
2022/02/19 06:26:43;;;;;;;6.17;2.10;;;;;;;8.84;55.58;95033.51;1724175;83;21018;-65
2022/02/19 06:29:11;;;;;;;3.70;1.60;;;;;;;8.80;55.57;95033.17;1722912;83;21528;-65
2022/02/19 06:31:40;;;;;;;2.57;1.70;;;;;;;8.79;55.64;95042.80;1724074;83;21558;-66
2022/02/19 06:34:06;;;;;;;3.13;1.60;;;;;;;8.76;56.40;95061.28;1695564;83;21023;-65
2022/02/19 06:36:33;;;;;;;3.90;2.10;;;;;;;8.77;56.67;95047.68;1724144;83;21062;-65
2022/02/19 06:39:02;;;;;;;4.43;2.70;;;;;;;8.78;56.79;95042.41;1723864;83;21003;-66
2022/02/19 06:41:30;;;;;;;5.50;2.43;;;;;;;8.88;56.86;95041.77;1724083;82;20995;-66
2022/02/19 06:44:15;;;;;;;3.20;2.10;;;;;;;8.86;57.08;95062.83;1723929;82;21003;-65
2022/02/19 06:46:43;;;;;;;5.80;2.20;;;;;;;8.85;57.14;95062.88;1723673;83;21011;-65
2022/02/19 06:49:10;;;;;;;3.00;1.77;;;;;;;8.86;57.44;95075.98;1724010;82;21018;-65
2022/02/19 06:51:39;;;;;;;6.93;2.43;;;;;;;8.84;57.64;95059.39;1723799;83;21504;-65
2022/02/19 06:54:06;;;;;;;5.30;2.30;;;;;;;8.84;57.90;95070.34;1723750;83;21023;-65
2022/02/19 06:56:32;;;;;;;3.43;2.57;;;;;;;8.81;57.91;95090.14;1724126;82;21018;-65
2022/02/19 06:59:00;;;;;;;5.30;2.70;;;;;;;8.79;59.35;95110.34;1723754;83;21500;-65
2022/02/19 07:01:29;;;;;;;4.00;2.33;;;;;;;8.72;60.62;95110.03;1724012;83;21544;-65
2022/02/19 07:03:58;;;;;;;2.90;2.03;;;;;;;8.61;61.42;95118.99;1725114;82;21493;-65
2022/02/19 07:06:43;;;;;;;4.27;1.80;;;;;;;8.48;62.96;95110.06;1729183;82;21524;-65
2022/02/19 07:09:10;;;;;;;3.57;2.40;;;;;;;8.30;64.04;95129.63;1729482;82;21030;-65
2022/02/19 07:11:37;;;;;;;2.53;1.40;;;;;;;8.16;64.03;95137.72;1729415;82;21079;-65
2022/02/19 07:14:04;;;;;;;3.93;2.20;;;;;;;8.06;64.55;95142.26;1729384;83;21497;-65
2022/02/19 07:16:30;;;;;;;5.17;2.27;;;;;;;7.95;65.73;95146.83;1729391;83;21038;-66
2022/02/19 07:18:57;;;;;;;3.73;1.93;;;;;;;7.86;65.53;95150.48;1729533;83;21087;-66
2022/02/19 07:21:25;;;;;;;2.77;2.00;;;;;;;7.77;66.59;95145.36;1729027;83;21469;-66
2022/02/19 07:23:52;;;;;;;5.17;3.03;;;;;;;7.76;66.53;95151.06;1729321;83;21074;-66
2022/02/19 07:26:20;;;;;;;3.77;2.40;;;;;;;7.71;67.14;95163.81;1729472;83;21050;-66
2022/02/19 07:28:48;;;;;;;6.77;3.83;;;;;;;7.62;68.78;95150.38;1729415;82;21058;-66
2022/02/19 07:31:15;;;;;;;5.27;2.90;;;;;;;7.61;68.67;95169.66;1729518;83;21038;-65
2022/02/19 07:33:42;;;;;;;4.33;2.10;;;;;;;7.54;69.51;95163.63;1729424;83;21500;-66
2022/02/19 07:36:10;;;;;;;3.07;2.10;;;;;;;7.52;69.38;95186.84;1729359;82;21110;-65
2022/02/19 07:38:37;;;;;;;2.10;1.73;;;;;;;7.47;69.44;95186.03;1729329;83;21014;-65
2022/02/19 07:41:04;;;;;;;3.37;1.80;;;;;;;7.41;70.59;95167.31;1729231;83;21030;-65
2022/02/19 07:43:38;;;;;;;4.20;2.50;;;;;;;7.37;69.72;95176.95;1726079;83;21034;-65
2022/02/19 07:46:07;;;;;;;5.07;2.10;;;;;;;7.35;69.78;95185.29;1727036;83;21022;-65
2022/02/19 07:48:51;;;;;;;4.00;2.67;;;;;;;7.37;69.60;95193.16;1729198;82;21025;-66
2022/02/19 07:59:51;;;;;;;4.50;2.47;;;;;;;7.24;69.35;95223.07;1729587;83;21038;-66
2022/02/19 08:02:17;;;;;;;4.70;2.50;;;;;;;7.24;69.19;95212.57;1729383;83;20995;-66
2022/02/19 08:04:44;;;;;;;6.50;3.53;;;;;;;7.17;70.35;95217.02;1727389;83;21046;-66
2022/02/19 08:07:11;;;;;;;4.13;2.47;;;;;;;7.22;69.75;95223.08;1724119;83;21444;-69
2022/02/19 08:09:37;;;;;;;4.67;2.57;;;;;;;7.24;70.41;95224.38;1724215;83;21015;-65
2022/02/19 08:12:05;;;;;;;3.27;2.43;;;;;;;7.26;71.00;95227.86;1724226;83;21473;-65
2022/02/19 08:14:32;;;;;;;3.23;1.70;;;;;;;7.28;72.17;95240.50;1724149;83;21525;-65
2022/02/19 08:16:58;;;;;;;4.13;2.60;;;;;;;7.31;71.51;95248.36;1724001;82;21544;-65
2022/02/19 08:19:25;;;;;;;4.80;2.57;;;;;;;7.38;71.15;95261.81;1724181;83;20999;-65
2022/02/19 08:21:51;;;;;;;3.93;2.17;;;;;;;7.42;71.52;95246.46;1724170;82;21480;-65
2022/02/19 08:24:17;;;;;;;3.50;2.30;;;;;;;7.47;71.30;95245.10;1723975;83;21018;-65
2022/02/19 08:26:44;;;;;;;3.70;2.40;;;;;;;7.65;71.02;95246.17;1724239;83;21015;-65
2022/02/19 08:29:11;;;;;;;3.73;2.00;;;;;;;7.87;70.77;95259.04;1724131;83;21461;-65
2022/02/19 08:31:37;;;;;;;2.87;1.90;;;;;;;8.02;69.88;95253.11;1724126;83;21050;-66
2022/02/19 08:34:03;;;;;;;3.20;2.40;;;;;;;8.19;71.37;95269.97;1724246;82;21074;-65
2022/02/19 08:36:30;;;;;;;5.63;4.47;;;;;;;8.41;69.21;95277.55;1724247;82;21034;-65
2022/02/19 08:38:56;;;;;;;4.63;2.40;;;;;;;8.48;67.91;95291.48;1723968;83;21453;-66
2022/02/19 08:41:23;;;;;;;3.43;2.67;;;;;;;8.49;67.38;95301.95;1724258;82;21015;-66
2022/02/19 08:43:49;;;;;;;5.43;4.40;;;;;;;8.54;67.98;95292.27;1723952;83;21099;-66
2022/02/19 08:46:16;;;;;;;3.90;2.20;;;;;;;8.62;68.22;95319.76;1724169;82;20994;-66
2022/02/19 08:48:42;;;;;;;4.13;2.73;;;;;;;8.45;67.11;95317.38;1695643;83;21094;-66
2022/02/19 08:51:08;;;;;;;4.10;2.70;;;;;;;8.23;67.13;95320.26;1724178;83;20990;-66
2022/02/19 08:53:36;;;;;;;3.77;2.60;;;;;;;8.09;67.68;95322.23;1723866;83;21540;-65
2022/02/19 08:56:03;;;;;;;4.10;2.30;;;;;;;8.01;67.84;95339.83;1724204;83;21002;-65
2022/02/19 08:58:29;;;;;;;4.00;2.70;;;;;;;7.92;68.17;95340.83;1724001;83;21078;-65
2022/02/19 09:00:56;;;;;;;4.80;3.40;;;;;;;7.90;68.59;95344.36;1724139;83;21047;-65
2022/02/19 09:03:23;;;;;;;3.77;2.97;;;;;;;7.86;68.59;95342.65;1724100;83;20995;-66
2022/02/19 09:05:50;;;;;;;4.27;2.67;;;;;;;7.71;68.47;95341.97;1723954;83;21015;-65
2022/02/19 09:08:16;;;;;;;3.37;2.03;;;;;;;7.73;67.52;95348.05;1723956;83;21567;-65
2022/02/19 09:10:43;;;;;;;6.23;4.20;;;;;;;7.62;68.27;95349.94;1724127;83;21075;-65
2022/02/19 09:13:10;;;;;;;4.70;3.20;;;;;;;7.57;67.21;95356.55;1723998;83;21106;-66
2022/02/19 09:15:38;;;;;;;3.87;3.00;;;;;;;7.55;67.58;95367.95;1724125;82;21011;-65
2022/02/19 09:18:07;;;;;;;5.93;3.30;;;;;;;7.55;67.81;95364.88;1724034;83;21018;-65
2022/02/19 09:20:34;;;;;;;4.97;3.40;;;;;;;7.57;67.77;95372.30;1724174;83;21023;-66
2022/02/19 09:23:01;;;;;;;6.53;4.10;;;;;;;7.56;68.12;95374.51;1723998;83;21070;-66
2022/02/19 09:25:28;;;;;;;10.10;6.60;;;;;;;7.55;67.73;95374.52;1724215;83;21054;-66
2022/02/19 09:27:54;;;;;;;9.10;4.07;;;;;;;7.57;67.47;95389.36;1723931;82;21034;-66
2022/02/19 09:30:21;;;;;;;7.50;4.00;;;;;;;7.59;67.23;95378.41;1724107;83;21038;-66
2022/02/19 09:32:49;;;;;;;9.37;5.93;;;;;;;7.56;66.71;95383.70;1724153;83;21003;-68
2022/02/19 09:35:16;;;;;;;5.00;3.70;;;;;;;7.55;66.46;95379.31;1724121;83;21528;-66
2022/02/19 09:37:43;;;;;;;6.13;4.20;;;;;;;7.62;65.92;95387.14;1724146;82;21082;-66
2022/02/19 09:40:12;;;;;;;11.13;7.63;;;;;;;7.72;65.86;95381.77;1723916;82;21058;-66
2022/02/19 09:42:40;;;;;;;7.77;5.27;;;;;;;7.87;65.50;95390.37;1724098;83;21073;-65
2022/02/19 09:45:08;;;;;;;7.60;5.57;;;;;;;7.93;64.44;95389.84;1724117;82;20971;-65
2022/02/19 09:47:37;;;;;;;6.30;3.10;;;;;;;8.08;62.95;95392.73;1723925;83;21023;-65
2022/02/19 09:50:04;;;;;;;3.70;2.67;;;;;;;8.14;62.24;95388.73;1724315;83;21010;-66
2022/02/19 09:52:31;;;;;;;4.83;2.50;;;;;;;8.26;60.68;95394.70;1724062;83;21054;-66
2022/02/19 09:55:00;;;;;;;9.53;5.83;;;;;;;8.38;60.35;95401.12;1723996;83;21018;-65
2022/02/19 09:57:27;;;;;;;4.00;2.93;;;;;;;8.41;58.60;95398.03;1724046;83;21087;-66
2022/02/19 09:59:54;;;;;;;5.23;2.80;;;;;;;8.53;59.92;95419.81;1724070;82;21035;-65
2022/02/19 10:02:32;;;;;;;5.77;2.30;;;;;;;8.43;55.97;95419.92;1724009;83;21073;-65
2022/02/19 10:05:18;;;;;;;4.73;2.37;;;;;;;8.36;55.62;95408.16;1723490;83;21492;-66
2022/02/19 10:07:53;;;;;;;4.20;2.20;;;;;;;8.53;56.44;95414.55;1723972;83;21078;-66
2022/02/19 10:10:25;;;;;;;6.37;3.70;;;;;;;8.68;57.06;95419.59;1720746;83;21007;-65
2022/02/19 10:12:52;;;;;;;4.43;2.33;;;;;;;8.73;55.22;95422.17;1724064;83;21015;-66
2022/02/19 10:15:19;;;;;;;4.70;2.60;;;;;;;8.78;55.17;95421.20;1724125;83;21065;-66
2022/02/19 10:17:46;;;;;;;3.50;1.70;;;;;;;8.77;54.28;95429.10;1724121;83;21064;-66
2022/02/19 10:20:14;;;;;;;4.23;2.00;;;;;;;8.70;54.68;95438.86;1724048;83;21034;-66
2022/02/19 10:22:45;;;;;;;9.20;3.90;;;;;;;8.67;55.80;95438.91;1723979;83;21034;-68
2022/02/19 10:25:16;;;;;;;4.97;2.07;;;;;;;8.62;54.79;95437.66;1723900;82;21512;-65
2022/02/19 10:27:54;;;;;;;6.23;3.43;;;;;;;8.58;55.47;95445.15;1724072;83;21521;-65
2022/02/19 10:30:23;;;;;;;3.67;3.10;;;;;;;8.61;56.21;95446.87;1724068;83;21568;-65
2022/02/19 10:33:00;;;;;;;4.67;3.27;;;;;;;8.62;56.21;95446.00;1724038;83;21576;-65
2022/02/19 10:35:38;;;;;;;5.23;3.57;;;;;;;8.62;56.50;95451.26;1724077;83;21019;-65
2022/02/19 10:38:15;;;;;;;5.40;3.80;;;;;;;8.60;56.96;95452.58;1723938;83;21054;-65
2022/02/19 10:40:52;;;;;;;6.03;3.70;;;;;;;8.61;56.77;95450.36;1724077;82;20999;-65
2022/02/19 10:43:23;;;;;;;4.23;3.00;;;;;;;8.61;56.88;95455.63;1723812;83;21032;-65
2022/02/19 10:45:58;;;;;;;4.50;3.13;;;;;;;8.69;57.55;95458.15;1724055;83;21073;-65
2022/02/19 10:48:32;;;;;;;5.47;2.90;;;;;;;8.85;57.84;95465.41;1724068;82;21031;-65
2022/02/19 10:51:14;;;;;;;3.20;2.58;;;;;;;9.01;58.21;95462.97;1724065;82;20983;-66
2022/02/19 10:53:43;;;;;;;4.93;2.67;;;;;;;9.10;56.24;95467.23;1723935;83;21074;-65
2022/02/19 10:56:13;;;;;;;4.77;2.97;;;;;;;8.96;54.88;95474.00;1724012;83;20987;-65
2022/02/19 10:59:10;;;;;;;5.60;3.63;;;;;;;8.85;54.50;95482.51;1723871;83;21607;-65
2022/02/19 11:01:46;;;;;;;4.77;3.57;;;;;;;8.76;55.97;95487.43;1723769;83;21062;-65
2022/02/19 11:04:15;;;;;;;6.47;4.77;;;;;;;8.73;55.87;95487.48;1723883;83;21062;-65
2022/02/19 11:06:43;;;;;;;5.40;3.00;;;;;;;8.63;57.11;95492.44;1723943;83;21046;-65
2022/02/19 11:09:11;;;;;;;5.47;3.10;;;;;;;8.56;57.13;95492.95;1723854;83;21046;-65
2022/02/19 11:11:45;;;;;;;3.87;3.07;;;;;;;8.56;56.96;95508.72;1723907;82;21054;-65
2022/02/19 11:14:16;;;;;;;4.60;2.20;;;;;;;8.51;56.21;95511.85;1724040;83;21551;-65
2022/02/19 11:16:44;;;;;;;3.57;2.70;;;;;;;8.52;56.53;95499.15;1723791;82;21018;-65
2022/02/19 11:19:11;;;;;;;4.37;2.73;;;;;;;8.60;57.60;95498.60;1723607;83;21074;-65
2022/02/19 11:21:38;;;;;;;5.10;2.50;;;;;;;8.81;56.20;95492.63;1724111;83;21023;-65
2022/02/19 11:24:09;;;;;;;5.47;2.70;;;;;;;9.01;56.62;95490.59;1695668;83;21533;-65
2022/02/19 11:26:37;;;;;;;3.63;3.23;;;;;;;9.22;55.35;95488.54;1723869;83;21426;-65
2022/02/19 11:29:08;;;;;;;7.27;3.00;;;;;;;9.42;55.03;95496.13;1724038;82;21133;-65
2022/02/19 11:31:36;;;;;;;4.07;2.07;;;;;;;9.56;54.53;95495.48;1696014;83;21489;-65
2022/02/19 11:34:05;;;;;;;5.40;3.27;;;;;;;9.67;51.97;95499.25;1723839;82;21016;-66
2022/02/19 11:36:33;;;;;;;4.87;2.53;;;;;;;9.79;53.19;95503.00;1695968;83;21053;-65
2022/02/19 11:39:04;;;;;;;4.87;2.52;;;;;;;10.02;53.18;95494.69;1724242;83;21042;-66
2022/02/19 11:41:42;;;;;;;3.92;2.70;;;;;;;10.54;52.60;95493.73;1724386;82;21050;-66
2022/02/19 11:44:23;;;;;;;5.20;2.33;;;;;;;10.87;48.26;95478.10;1724478;82;21014;-66
2022/02/19 11:46:53;;;;;;;5.60;2.15;;;;;;;10.88;47.14;95482.46;1724164;83;20983;-66
2022/02/19 11:49:23;;;;;;;3.33;2.00;;;;;;;11.20;48.20;95473.83;1724375;83;21073;-65
2022/02/19 11:52:14;;;;;;;3.45;2.00;;;;;;;11.26;45.80;95476.78;1724417;83;21026;-65
2022/02/19 11:54:41;;;;;;;4.42;2.00;;;;;;;11.11;45.43;95474.03;1723998;83;21015;-65
2022/02/19 11:57:22;;;;;;;2.15;1.67;;;;;;;11.01;45.80;95465.48;1724363;83;21054;-65